createdAt,value
2023-01-11T01:51:24.809Z,16.97
2023-01-11T01:52:27.836Z,17.74
2023-01-11T01:53:39.470Z,17.59
2023-01-11T01:54:45.244Z,16.50
2023-01-11T01:55:57.405Z,10.04
2023-01-11T01:57:05.676Z,12.55
2023-01-11T01:58:11.408Z,12.06
2023-01-11T01:59:16.113Z,9.22
2023-01-11T02:00:19.760Z,13.04
2023-01-11T02:01:21.716Z,14.26
2023-01-11T02:02:25.314Z,15.33
2023-01-11T02:03:27.862Z,11.56
2023-01-11T02:04:33.667Z,14.40
2023-01-11T02:05:35.875Z,11.96
2023-01-11T02:06:39.244Z,11.85
2023-01-11T02:07:42.602Z,14.43
2023-01-11T02:08:48.279Z,16.67
2023-01-11T02:10:14.289Z,11.79
2023-01-11T02:11:17.423Z,12.72
2023-01-11T02:12:22.553Z,15.33
2023-01-11T02:13:25.139Z,14.18
2023-01-11T02:14:28.647Z,15.51
2023-01-11T02:15:31.647Z,14.79
2023-01-11T02:16:34.661Z,13.48
2023-01-11T02:17:36.725Z,13.84
2023-01-11T02:18:38.707Z,11.37
2023-01-11T02:19:53.763Z,14.43
2023-01-11T02:21:02.480Z,14.79
2023-01-11T02:22:28.079Z,12.55
2023-01-11T02:23:42.585Z,17.76
2023-01-11T02:25:12.756Z,12.79
2023-01-11T02:26:40.135Z,11.58
2023-01-11T02:27:57.999Z,13.06
2023-01-11T02:29:06.429Z,12.80
2023-01-11T02:30:15.568Z,16.59
2023-01-11T02:31:21.378Z,14.59
2023-01-11T02:32:53.546Z,14.82
2023-01-11T02:34:11.698Z,11.00
2023-01-11T02:36:57.977Z,11.42
2023-01-11T02:38:06.914Z,14.80
2023-01-11T02:39:15.124Z,13.01
2023-01-11T02:40:20.894Z,13.53
2023-01-11T02:41:33.119Z,11.95
2023-01-11T02:42:55.565Z,11.23
2023-01-11T02:44:04.394Z,10.74
2023-01-11T02:45:33.118Z,11.60
2023-01-11T02:46:47.539Z,10.57
2023-01-11T02:48:01.044Z,10.37
2023-01-11T02:49:37.026Z,10.34
2023-01-11T02:50:42.796Z,12.89
2023-01-11T02:51:57.062Z,12.13
2023-01-11T02:53:17.831Z,16.10
2023-01-11T02:54:23.104Z,14.03
2023-01-11T02:55:28.799Z,14.11
2023-01-11T02:56:34.563Z,12.09
2023-01-11T02:57:38.217Z,13.45
2023-01-11T02:58:45.136Z,11.77
2023-01-11T02:59:49.290Z,15.17
2023-01-11T03:00:53.141Z,12.19
2023-01-11T03:01:55.170Z,13.35
2023-01-11T03:03:17.907Z,12.50
2023-01-11T03:04:29.322Z,10.26
2023-01-11T03:06:36.649Z,12.55
2023-01-11T03:09:45.393Z,12.70
2023-01-11T03:11:03.493Z,11.60
2023-01-11T03:12:12.236Z,15.51
2023-01-11T03:13:21.168Z,13.13
2023-01-11T03:14:26.867Z,9.12
2023-01-11T03:15:44.976Z,10.06
2023-01-11T03:16:56.993Z,12.18
2023-01-11T03:18:11.075Z,12.49
2023-01-11T03:19:25.973Z,10.45
2023-01-11T03:20:31.770Z,11.73
2023-01-11T03:21:46.473Z,8.98
2023-01-11T03:23:03.995Z,16.44
2023-01-11T03:24:24.555Z,11.75
2023-01-11T03:25:59.123Z,13.04
2023-01-11T03:27:38.592Z,13.99
2023-01-11T03:29:05.941Z,12.02
2023-01-11T03:30:14.692Z,13.01
2023-01-11T03:31:23.558Z,14.30
2023-01-11T03:32:29.510Z,12.49
2023-01-11T03:33:41.188Z,12.26
2023-01-11T03:34:58.918Z,10.56
2023-01-11T03:36:19.741Z,10.79
2023-01-11T03:37:28.821Z,12.27
2023-01-11T03:38:34.501Z,12.95
2023-01-11T03:39:46.444Z,13.58
2023-01-11T03:40:52.230Z,16.74
2023-01-11T03:41:58.552Z,11.73
2023-01-11T03:44:19.973Z,10.76
2023-01-11T03:45:22.909Z,12.74
2023-01-11T03:46:34.793Z,11.14
2023-01-11T03:47:37.237Z,10.39
2023-01-11T03:48:52.560Z,16.09
2023-01-11T03:49:58.233Z,9.73
2023-01-11T03:51:02.450Z,12.43
2023-01-11T03:52:08.443Z,10.57
2023-01-11T08:18:14.214Z,17.77
2023-01-11T08:20:26.074Z,14.38
2023-01-11T08:21:29.762Z,13.31
2023-01-11T08:22:31.751Z,14.72
2023-01-11T08:23:34.729Z,16.89
2023-01-11T08:24:37.370Z,11.68
2023-01-11T08:25:39.420Z,20.48
2023-01-11T08:26:41.680Z,13.25
2023-01-11T08:27:44.706Z,16.26
2023-01-11T08:28:48.691Z,15.84
2023-01-11T08:29:51.605Z,13.35
2023-01-11T08:30:53.715Z,14.05
2023-01-11T08:31:58.507Z,17.93
2023-01-11T08:33:01.578Z,13.22
2023-01-11T08:34:04.834Z,15.79
2023-01-11T08:35:07.810Z,13.69
2023-01-11T08:36:11.932Z,12.85
2023-01-11T08:37:15.487Z,13.28
2023-01-11T08:38:17.378Z,13.82
2023-01-11T08:39:19.375Z,12.85
2023-01-11T08:40:24.065Z,12.21
2023-01-11T08:41:25.826Z,15.43
2023-01-11T08:42:27.984Z,14.54
2023-01-11T08:43:29.903Z,16.10
2023-01-11T08:44:34.532Z,17.01
2023-01-11T08:45:36.011Z,16.04
2023-01-11T08:46:38.222Z,12.65
2023-01-11T08:47:40.288Z,16.13
2023-01-11T08:48:42.895Z,16.38
2023-01-11T08:49:44.870Z,13.99
2023-01-11T08:50:47.039Z,13.89
2023-01-11T08:51:48.925Z,14.51
2023-01-11T08:52:51.699Z,13.27
2023-01-11T08:53:53.815Z,16.69
2023-01-11T08:54:55.710Z,13.69
2023-01-11T08:55:57.619Z,14.20
2023-01-11T08:56:59.590Z,17.77
2023-01-11T08:58:02.931Z,14.47
2023-01-11T08:59:06.520Z,14.64
2023-01-11T09:00:10.000Z,12.78
2023-01-11T09:01:12.055Z,13.77
2023-01-11T09:02:15.331Z,17.96
2023-01-11T09:03:17.714Z,13.69
2023-01-11T09:04:25.185Z,14.85
2023-01-11T09:05:23.433Z,17.36
2023-01-11T09:06:25.882Z,14.07
2023-01-11T09:07:27.868Z,13.29
2023-01-11T09:08:30.222Z,12.71
2023-01-11T09:09:32.195Z,11.73
2023-01-11T09:10:35.053Z,14.16
2023-01-11T09:11:36.974Z,15.03
2023-01-11T09:12:38.967Z,12.85
2023-01-11T09:13:40.839Z,13.85
2023-01-11T09:14:42.727Z,15.81
2023-01-11T09:15:44.864Z,10.63
2023-01-11T09:16:47.009Z,15.17
2023-01-11T09:17:49.792Z,13.32
2023-01-11T09:18:51.693Z,18.37
2023-01-11T09:19:55.565Z,18.90
2023-01-11T09:20:57.778Z,12.96
2023-01-11T09:21:59.862Z,13.44
2023-01-11T09:23:02.024Z,13.41
2023-01-11T09:24:04.941Z,13.31
2023-01-11T09:25:08.316Z,14.67
2023-01-11T09:26:12.397Z,15.40
2023-01-11T09:27:14.432Z,16.47
2023-01-11T09:28:17.414Z,15.63
2023-01-11T09:29:19.773Z,13.76
2023-01-11T09:30:23.272Z,14.75
2023-01-11T09:31:25.226Z,11.27
2023-01-11T09:32:27.401Z,11.91
2023-01-11T09:33:29.602Z,15.06
2023-01-11T09:34:31.806Z,14.60
2023-01-11T09:35:34.170Z,15.41
2023-01-11T09:36:36.319Z,20.13
2023-01-11T09:37:40.366Z,12.84
2023-01-11T09:38:42.287Z,13.21
2023-01-11T09:39:45.361Z,12.75
2023-01-11T09:40:51.189Z,12.59
2023-01-11T09:42:02.713Z,16.70
2023-01-11T09:43:04.794Z,15.90
2023-01-11T09:44:16.482Z,12.33
2023-01-11T09:45:22.842Z,12.86
2023-01-11T09:46:28.041Z,16.67
2023-01-11T09:47:53.129Z,11.74
2023-01-11T09:48:57.825Z,18.69
2023-01-11T09:50:03.532Z,17.19
2023-01-11T09:51:09.385Z,11.00
2023-01-11T09:52:21.317Z,12.66
2023-01-11T09:54:45.940Z,12.42
2023-01-11T09:55:50.432Z,13.64
2023-01-11T09:57:19.385Z,13.06
2023-01-11T09:58:48.478Z,14.57
2023-01-11T09:59:54.171Z,15.69
2023-01-11T10:01:01.379Z,16.61
2023-01-11T10:02:24.238Z,16.24
2023-01-11T10:03:29.920Z,11.94
2023-01-11T10:04:44.941Z,12.55
2023-01-11T10:05:59.261Z,19.30
2023-01-11T10:07:11.235Z,12.63
2023-01-11T10:18:22.197Z,12.09
2023-01-11T10:18:27.586Z,17.04
2023-01-11T10:18:34.072Z,14.21
2023-01-11T10:19:25.744Z,15.25
2023-01-11T10:20:26.061Z,13.45
2023-01-11T10:21:34.697Z,13.83
2023-01-11T10:22:40.315Z,17.06
2023-01-11T10:23:47.283Z,17.53
2023-01-11T10:24:56.197Z,15.07
2023-01-11T10:25:59.408Z,14.97
2023-01-11T10:27:05.643Z,17.98
2023-01-11T10:29:38.993Z,15.37
2023-01-11T10:30:44.769Z,13.68
2023-01-11T10:31:59.479Z,13.20
2023-01-11T10:33:08.149Z,13.66
2023-01-11T10:34:16.641Z,20.36
2023-01-11T10:35:31.572Z,17.61
2023-01-11T10:36:57.258Z,15.87
2023-01-11T10:38:03.167Z,15.00
2023-01-11T10:40:29.670Z,11.63
2023-01-11T10:41:42.884Z,17.23
2023-01-11T10:42:51.423Z,17.15
2023-01-11T10:44:11.732Z,16.43
2023-01-11T10:45:20.281Z,18.21
2023-01-11T10:46:25.638Z,13.37
2023-01-11T10:47:37.367Z,16.76
2023-01-11T10:48:42.745Z,15.05
2023-01-11T10:50:06.613Z,16.57
2023-01-11T10:51:30.997Z,20.42
2023-01-11T10:52:42.712Z,13.72
2023-01-11T10:53:51.837Z,16.07
2023-01-11T10:54:54.168Z,16.94
2023-01-11T10:56:19.463Z,15.29
2023-01-11T10:57:35.614Z,12.39
2023-01-11T10:58:44.360Z,15.78
2023-01-11T11:00:02.369Z,16.53
2023-01-11T11:01:08.377Z,13.81
2023-01-11T11:02:17.462Z,14.41
2023-01-11T11:03:29.457Z,16.91
2023-01-11T11:05:01.919Z,13.42
2023-01-11T11:06:07.611Z,15.57
2023-01-11T11:08:58.033Z,16.37
2023-01-11T11:10:09.253Z,15.86
2023-01-11T11:12:28.318Z,13.94
2023-01-11T11:13:43.490Z,14.77
2023-01-11T11:15:09.279Z,15.80
2023-01-11T11:16:24.358Z,14.22
2023-01-11T11:17:32.598Z,27.63
2023-01-11T11:18:36.694Z,15.93
2023-01-11T11:19:41.224Z,15.39
2023-01-11T11:20:44.766Z,17.15
2023-01-11T11:21:48.899Z,16.77
2023-01-11T11:22:53.583Z,16.33
2023-01-11T11:24:17.916Z,17.89
2023-01-11T11:25:37.754Z,14.89
2023-01-11T11:26:43.661Z,13.06
2023-01-11T11:27:51.818Z,12.59
2023-01-11T11:29:00.855Z,17.19
2023-01-11T11:30:06.843Z,15.13
2023-01-11T11:31:08.922Z,20.13
2023-01-11T11:32:29.161Z,14.85
2023-01-11T11:33:39.103Z,15.54
2023-01-11T11:34:46.880Z,13.88
2023-01-11T11:36:04.369Z,13.24
2023-01-11T11:37:10.087Z,15.53
2023-01-11T11:38:25.324Z,13.02
2023-01-11T11:39:31.076Z,16.02
2023-01-11T11:40:36.519Z,15.57
2023-01-11T11:41:48.468Z,14.41
2023-01-11T11:42:54.235Z,17.27
2023-01-11T11:44:10.210Z,15.32
2023-01-11T11:45:16.969Z,14.92
2023-01-11T11:46:27.783Z,11.90
2023-01-11T11:47:30.060Z,15.66
2023-01-11T11:48:33.936Z,15.05
2023-01-11T11:49:38.101Z,14.29
2023-01-11T11:50:45.562Z,15.12
2023-01-11T11:51:46.653Z,14.01
2023-01-11T11:52:52.863Z,17.59
2023-01-11T11:53:55.860Z,12.96
2023-01-11T16:15:22.314Z,18.09
2023-01-11T16:16:28.041Z,16.22
2023-01-11T16:17:30.743Z,17.26
2023-01-11T16:19:54.589Z,15.33
2023-01-11T16:21:09.178Z,19.60
2023-01-11T16:22:14.862Z,19.21
2023-01-11T16:23:20.130Z,19.84
2023-01-11T16:24:25.827Z,18.38
2023-01-11T16:25:41.183Z,20.61
2023-01-11T16:26:46.374Z,18.52
2023-01-11T16:27:53.715Z,15.57
2023-01-11T16:28:59.011Z,19.27
2023-01-11T16:30:02.078Z,20.51
2023-01-11T16:31:04.932Z,18.65
2023-01-11T16:32:20.658Z,17.44
2023-01-11T16:33:26.081Z,19.86
2023-01-11T16:34:31.891Z,16.39
2023-01-11T16:35:33.860Z,18.87
2023-01-11T16:36:38.065Z,16.77
2023-01-11T16:37:49.292Z,21.38
2023-01-11T16:40:15.744Z,20.29
2023-01-11T16:41:19.242Z,19.20
2023-01-11T16:42:22.181Z,18.01
2023-01-11T16:43:27.959Z,19.08
2023-01-11T16:44:50.195Z,19.92
2023-01-11T16:45:53.273Z,18.48
2023-01-11T16:47:13.437Z,17.96
2023-01-11T16:48:21.189Z,17.98
2023-01-11T16:49:23.215Z,19.48
2023-01-11T16:50:25.580Z,28.79
2023-01-11T16:51:27.683Z,17.08
2023-01-11T16:52:33.349Z,16.79
2023-01-11T16:53:40.104Z,21.14
2023-01-11T16:54:42.536Z,20.18
2023-01-11T16:55:59.782Z,18.49
2023-01-11T16:57:02.421Z,18.16
2023-01-11T16:58:16.630Z,20.49
2023-01-11T16:59:25.374Z,16.79
2023-01-11T17:00:34.099Z,17.29
2023-01-11T17:01:51.162Z,20.26
2023-01-11T17:03:04.628Z,16.98
2023-01-11T17:04:19.028Z,16.08
2023-01-11T17:05:23.211Z,17.31
2023-01-11T17:06:25.613Z,20.11
2023-01-11T17:07:29.234Z,18.25
2023-01-11T17:08:34.575Z,24.28
2023-01-11T17:09:37.597Z,22.81
2023-01-11T17:10:40.258Z,20.22
2023-01-11T17:11:43.449Z,15.66
2023-01-11T17:14:30.578Z,19.22
2023-01-11T17:15:51.735Z,20.33
2023-01-11T17:16:59.025Z,19.08
2023-01-11T17:18:04.240Z,19.01
2023-01-11T17:19:12.865Z,19.01
2023-01-11T17:20:24.961Z,21.96
2023-01-11T17:21:29.577Z,20.61
2023-01-11T17:22:35.281Z,21.93
2023-01-11T17:23:40.035Z,22.94
2023-01-11T17:24:54.567Z,20.18
2023-01-11T17:25:57.565Z,16.97
2023-01-11T17:27:01.449Z,19.84
2023-01-11T17:28:06.627Z,20.91
2023-01-11T17:29:12.433Z,18.09
2023-01-11T17:30:21.364Z,18.78
2023-01-11T17:31:27.998Z,19.68
2023-01-11T17:32:39.933Z,16.23
2023-01-11T17:33:42.037Z,19.87
2023-01-11T17:34:44.588Z,24.33
2023-01-11T17:35:46.789Z,17.03
2023-01-11T17:36:49.789Z,19.39
2023-01-11T17:37:55.816Z,15.68
2023-01-11T17:38:58.480Z,16.87
2023-01-11T17:40:01.799Z,18.23
2023-01-11T17:41:06.376Z,19.34
2023-01-11T17:42:13.771Z,16.88
2023-01-11T17:44:35.484Z,20.25
2023-01-11T17:45:37.912Z,24.45
2023-01-11T17:46:40.712Z,22.23
2023-01-11T17:47:51.414Z,21.91
2023-01-11T17:48:55.664Z,21.86
2023-01-11T17:50:00.715Z,22.05
2023-01-11T17:51:04.916Z,21.94
2023-01-11T17:52:09.381Z,23.33
2023-01-11T17:53:18.255Z,24.81
2023-01-11T17:54:21.599Z,23.08
2023-01-11T17:55:25.955Z,21.84
2023-01-11T17:56:39.786Z,21.66
2023-01-11T17:57:43.193Z,18.04
2023-01-11T17:58:45.095Z,21.61
2023-01-11T17:59:46.969Z,23.23
2023-01-11T18:01:14.102Z,22.41
2023-01-11T18:02:16.603Z,22.37
2023-01-11T18:03:19.051Z,18.76
2023-01-11T18:04:22.751Z,20.57
2023-01-11T18:05:27.434Z,25.70
2023-01-11T18:06:38.634Z,21.49
2023-01-11T18:07:42.685Z,19.80
2023-01-11T18:08:47.323Z,20.78
2023-01-11T18:09:52.406Z,20.72
2023-01-11T18:10:54.933Z,21.76
2023-01-11T18:12:09.647Z,25.31
2023-01-11T18:13:15.473Z,22.99
2023-01-11T18:14:24.127Z,24.02
2023-01-11T18:15:32.501Z,27.59
2023-01-11T18:16:34.655Z,28.82
2023-01-11T18:17:38.917Z,25.09
2023-01-11T18:18:47.093Z,23.11
2023-01-11T18:19:49.170Z,21.39
2023-01-11T18:20:51.261Z,25.56
2023-01-11T18:21:53.941Z,22.75
2023-01-11T18:23:14.632Z,24.15
2023-01-11T18:24:23.098Z,23.93
2023-01-11T18:25:30.065Z,25.79
2023-01-11T18:26:33.213Z,18.77
2023-01-11T18:27:36.213Z,21.86
2023-01-11T18:28:38.356Z,22.62
2023-01-11T18:29:44.007Z,20.23
2023-01-11T18:30:51.580Z,20.56
2023-01-11T18:31:53.822Z,20.14
2023-01-11T18:32:57.588Z,22.90
2023-01-11T18:34:00.095Z,21.61
2023-01-11T18:35:02.898Z,20.67
2023-01-11T18:36:08.832Z,22.16
2023-01-11T18:37:13.335Z,21.07
2023-01-11T18:38:17.696Z,21.10
2023-01-11T18:39:19.695Z,18.14
2023-01-11T18:40:22.191Z,22.33
2023-01-11T18:41:24.714Z,19.45
2023-01-11T18:42:29.190Z,20.39
2023-01-11T18:43:31.186Z,18.78
2023-01-11T18:44:39.217Z,16.07
2023-01-11T18:45:41.443Z,21.66
2023-01-11T18:46:43.800Z,17.71
2023-01-11T18:47:45.721Z,16.65
2023-01-11T18:48:47.695Z,20.22
2023-01-11T18:49:51.711Z,17.05
2023-01-11T18:50:54.132Z,19.22
2023-01-11T18:51:56.715Z,18.85
2023-01-11T18:52:58.688Z,18.69
2023-01-11T18:54:00.960Z,16.88
2023-01-11T18:55:04.265Z,19.14
2023-01-11T18:56:07.579Z,16.72
2023-01-11T18:57:10.096Z,20.84
2023-01-11T18:58:12.097Z,18.10
2023-01-11T18:59:14.108Z,17.93
2023-01-11T19:00:17.183Z,18.67
2023-01-11T19:01:19.562Z,19.51
2023-01-11T19:02:30.820Z,21.96
2023-01-11T19:03:33.362Z,22.58
2023-01-11T19:04:35.294Z,20.13
2023-01-11T19:05:37.698Z,22.47
2023-01-11T19:06:40.781Z,21.41
2023-01-11T19:07:42.672Z,18.18
2023-01-11T19:08:44.583Z,18.78
2023-01-11T19:09:46.837Z,19.65
2023-01-11T19:10:48.934Z,25.75
2023-01-11T19:11:50.953Z,20.11
2023-01-11T19:12:52.965Z,25.19
2023-01-11T19:13:54.958Z,20.05
2023-01-11T19:14:57.100Z,20.33
2023-01-11T19:16:02.576Z,21.59
2023-01-11T19:17:04.875Z,19.33
2023-01-11T19:18:06.844Z,19.29
2023-01-11T19:19:08.719Z,19.44
2023-01-11T19:20:12.714Z,19.56
2023-01-11T19:21:15.370Z,20.37
2023-01-11T19:22:17.578Z,22.25
2023-01-11T19:23:19.467Z,19.33
2023-01-11T19:24:21.542Z,20.55
2023-01-11T19:25:23.484Z,21.76
2023-01-11T19:26:25.461Z,19.13
2023-01-11T19:27:27.647Z,19.44
2023-01-11T19:28:29.732Z,26.03
2023-01-11T19:29:32.036Z,21.34
2023-01-11T19:30:34.613Z,22.06
2023-01-11T19:31:36.525Z,22.03
2023-01-11T19:32:38.653Z,21.17
2023-01-11T19:33:40.760Z,22.19
2023-01-11T19:34:42.668Z,22.57
2023-01-11T19:35:44.860Z,20.89
2023-01-11T19:36:49.020Z,23.05
2023-01-11T19:37:51.602Z,24.86
2023-01-11T19:38:53.799Z,20.84
2023-01-11T19:39:57.773Z,26.91
2023-01-11T19:41:05.668Z,28.01
2023-01-11T19:42:07.747Z,23.97
2023-01-11T19:43:10.401Z,26.48
2023-01-11T19:44:12.883Z,23.09
2023-01-11T19:45:14.869Z,28.67
2023-01-11T19:46:30.197Z,24.78
2023-01-11T19:47:20.959Z,26.79
2023-01-11T19:48:23.835Z,25.48
2023-01-11T19:49:26.439Z,24.87
2023-01-11T19:50:28.539Z,25.21
2023-01-11T19:51:30.423Z,30.19
2023-01-11T19:52:32.353Z,26.32
2023-01-11T19:53:35.162Z,20.21
2023-01-11T19:54:38.942Z,24.86
2023-01-11T19:55:41.171Z,25.43
2023-01-11T19:56:44.190Z,24.50
2023-01-11T19:57:46.744Z,23.99
2023-01-11T19:58:48.871Z,25.61
2023-01-11T19:59:51.113Z,22.94
2023-01-11T20:00:53.095Z,24.48
2023-01-11T20:01:54.976Z,26.29
2023-01-11T23:36:59.076Z,25.67
2023-01-11T23:38:00.986Z,33.45
2023-01-11T23:39:08.854Z,31.00
2023-01-11T23:40:12.086Z,37.29
2023-01-11T23:41:16.502Z,33.63
2023-01-11T23:42:18.423Z,37.26
2023-01-11T23:43:20.441Z,31.53
2023-01-11T23:44:22.621Z,34.03
2023-01-11T23:45:24.770Z,30.90
2023-01-11T23:46:27.269Z,29.12
2023-01-11T23:47:29.191Z,30.51
2023-01-11T23:48:31.428Z,28.15
2023-01-11T23:49:33.421Z,30.63
2023-01-11T23:50:35.423Z,29.67
2023-01-11T23:51:39.956Z,27.39
2023-01-11T23:52:41.881Z,27.58
2023-01-11T23:53:43.810Z,33.19
2023-01-11T23:54:46.648Z,25.05
2023-01-11T23:55:54.064Z,26.57
2023-01-11T23:56:57.484Z,24.94
2023-01-11T23:57:59.384Z,26.20
2023-01-11T23:59:02.342Z,25.04
